The Hague, Netherlands
Current Conditions -  °F | °C
As of 10:25 AM on Friday 28 Nov 2014 (Local Time) from EHRD Reporting Station
Clear Clear  
Wind Chill: 38°   Ceiling: Unl
Heat Index: 45°   Visibility: 4mi
Dew Point: 41°   Wind: 13mph
Humidity: 87%   Direction: 100°E
Pressure: 29.74"   Gusts: NA
Location:  52.08°N, 4.31°E
Report Text: EHRD 280925Z AUTO 10011KT 070V130 6000 NSC 07/05 Q1007 NOSIG
Loading
Personal Weather Stations






























Interactive Weather Map New forecast layout! Learn more

10-Day Weather Forecast

Advertisements
Track Severe Weather on mobile